Time;durP1;ratioP1;P1;durP2;ratioP2;P2;SDS_P1;SDS_P2;PMS_P1;PMS_P2;Temp;Humidity;BMP_temperature;BMP_pressure;BME280_temperature;BME280_humidity;BME280_pressure;Samples;Min_cycle;Max_cycle;Signal;HPM_P1;HPM_P2
2023/03/09 00:01:31;;;;;;;19.40;13.67;;;13.40;81.50;;;;;;4926268;29;20202;-79
2023/03/09 00:03:59;;;;;;;22.07;14.17;;;13.40;81.80;;;;;;4930557;29;20202;-79
2023/03/09 00:06:27;;;;;;;18.47;13.33;;;13.40;81.80;;;;;;4937858;29;20218;-80
2023/03/09 00:08:55;;;;;;;17.57;13.23;;;13.40;81.80;;;;;;4922159;29;20270;-79
2023/03/09 00:11:22;;;;;;;18.07;13.73;;;13.30;81.90;;;;;;4938305;29;20203;-79
2023/03/09 00:13:50;;;;;;;20.33;14.47;;;13.30;82.20;;;;;;4936516;29;20202;-79
2023/03/09 00:16:23;;;;;;;16.53;13.17;;;13.30;82.70;;;;;;4922500;29;20645;-80
2023/03/09 00:18:51;;;;;;;17.63;13.50;;;13.30;82.90;;;;;;4944478;29;20226;-79
2023/03/09 00:21:34;;;;;;;20.60;14.80;;;13.30;82.80;;;;;;4930996;29;20203;-79
2023/03/09 00:24:29;;;;;;;17.43;12.93;;;13.30;82.80;;;;;;4938927;29;20240;-79
2023/03/09 00:27:01;;;;;;;18.03;13.53;;;13.20;83.00;;;;;;4926904;29;20207;-79
2023/03/09 00:29:30;;;;;;;19.13;12.93;;;13.20;83.70;;;;;;4928421;29;20203;-79
2023/03/09 00:31:58;;;;;;;19.30;13.73;;;13.10;83.20;;;;;;4931880;29;20202;-79
2023/03/09 00:34:25;;;;;;;16.60;13.57;;;13.10;83.40;;;;;;4918027;29;20626;-80
2023/03/09 00:36:52;;;;;;;22.30;15.03;;;13.10;83.60;;;;;;4937540;29;20210;-79
2023/03/09 00:39:19;;;;;;;16.97;13.13;;;13.00;83.70;;;;;;4930425;29;20233;-79
2023/03/09 00:41:47;;;;;;;22.60;13.53;;;13.00;83.90;;;;;;4924735;29;20221;-79
2023/03/09 00:44:15;;;;;;;18.10;13.20;;;13.00;84.10;;;;;;4931277;29;20715;-78
2023/03/09 00:46:42;;;;;;;16.90;13.33;;;13.00;84.20;;;;;;4925628;29;20286;-78
2023/03/09 00:49:12;;;;;;;19.30;13.67;;;12.90;84.20;;;;;;4934093;29;20218;-79
2023/03/09 00:51:42;;;;;;;24.33;15.10;;;12.90;84.20;;;;;;4937955;29;20287;-79
2023/03/09 00:54:12;;;;;;;17.90;14.20;;;12.90;84.10;;;;;;4932413;29;20210;-79
2023/03/09 00:56:41;;;;;;;15.50;13.17;;;12.90;84.10;;;;;;4935012;29;20216;-79
2023/03/09 00:59:08;;;;;;;15.67;12.73;;;12.90;84.20;;;;;;4929905;29;20317;-79
2023/03/09 01:01:35;;;;;;;19.20;14.27;;;13.00;84.40;;;;;;4917619;29;20270;-80
2023/03/09 01:04:03;;;;;;;18.73;13.63;;;13.00;84.50;;;;;;4935874;29;20650;-82
2023/03/09 01:06:31;;;;;;;17.67;12.93;;;13.00;84.50;;;;;;4922886;29;20671;-79
2023/03/09 01:08:58;;;;;;;17.70;13.73;;;13.00;84.60;;;;;;4935431;29;20211;-79
2023/03/09 01:11:25;;;;;;;18.60;13.60;;;13.00;84.50;;;;;;4929440;29;20309;-79
2023/03/09 01:13:53;;;;;;;24.07;15.20;;;13.10;84.40;;;;;;4938029;29;20658;-79
2023/03/09 01:16:21;;;;;;;21.67;13.93;;;13.00;84.30;;;;;;4929966;29;20202;-80
2023/03/09 01:18:48;;;;;;;20.17;14.03;;;13.00;84.30;;;;;;4925095;29;20300;-79
2023/03/09 01:21:17;;;;;;;20.10;13.50;;;13.00;84.50;;;;;;4923954;29;20789;-79
2023/03/09 01:23:44;;;;;;;18.80;14.00;;;13.00;84.60;;;;;;4942309;29;20344;-79
2023/03/09 01:26:11;;;;;;;21.33;13.87;;;12.90;84.60;;;;;;4939164;29;20867;-79
2023/03/09 01:28:38;;;;;;;18.27;13.87;;;13.00;84.70;;;;;;4938017;29;20228;-79
2023/03/09 01:31:11;;;;;;;18.80;13.23;;;13.00;84.50;;;;;;4945633;29;20269;-79
2023/03/09 01:33:41;;;;;;;17.73;12.70;;;13.00;84.20;;;;;;4939201;29;20218;-79
2023/03/09 01:36:12;;;;;;;17.10;13.57;;;13.00;84.00;;;;;;4921643;29;20313;-79
2023/03/09 01:38:39;;;;;;;18.43;13.60;;;13.10;83.90;;;;;;4934101;29;20311;-78
2023/03/09 01:41:06;;;;;;;17.10;13.60;;;13.10;83.90;;;;;;4923388;29;20191;-79
2023/03/09 01:43:42;;;;;;;17.63;13.67;;;13.10;83.90;;;;;;4930831;29;20848;-79
2023/03/09 01:46:24;;;;;;;16.90;13.80;;;13.10;84.10;;;;;;4929425;29;20306;-79
2023/03/09 01:48:55;;;;;;;17.47;13.73;;;13.10;84.20;;;;;;4941705;29;20211;-79
2023/03/09 01:51:26;;;;;;;15.73;12.63;;;13.10;84.10;;;;;;4937339;29;20226;-80
2023/03/09 01:53:54;;;;;;;17.50;13.57;;;13.10;84.30;;;;;;4934551;29;20273;-80
2023/03/09 01:56:24;;;;;;;19.07;13.70;;;13.20;84.20;;;;;;4929401;29;20209;-80
2023/03/09 01:58:53;;;;;;;18.67;13.50;;;13.20;83.90;;;;;;4933503;29;20687;-79
2023/03/09 02:01:21;;;;;;;18.77;13.87;;;13.20;83.70;;;;;;4916955;29;20208;-79
2023/03/09 02:03:58;;;;;;;19.17;13.23;;;13.10;83.80;;;;;;4934524;29;20202;-79
2023/03/09 02:06:26;;;;;;;19.00;13.43;;;13.10;84.10;;;;;;4938334;29;20207;-79
2023/03/09 02:09:12;;;;;;;16.90;12.97;;;13.10;84.40;;;;;;4937252;29;20273;-80
2023/03/09 02:11:41;;;;;;;20.47;13.47;;;13.10;84.90;;;;;;4932141;29;20664;-79
2023/03/09 02:14:10;;;;;;;18.10;13.67;;;13.10;84.90;;;;;;4937578;29;20712;-79
2023/03/09 02:16:38;;;;;;;17.33;13.93;;;13.10;85.20;;;;;;4933114;29;20264;-81
2023/03/09 02:19:16;;;;;;;17.03;13.60;;;13.10;85.20;;;;;;4937699;29;20232;-79
2023/03/09 02:21:55;;;;;;;19.23;13.13;;;13.10;85.40;;;;;;4947007;29;20196;-79
2023/03/09 02:24:47;;;;;;;18.53;14.20;;;13.00;85.70;;;;;;4932306;29;20301;-79
2023/03/09 02:27:20;;;;;;;17.93;13.30;;;13.00;86.10;;;;;;4928457;29;20210;-79
2023/03/09 02:29:49;;;;;;;19.00;13.77;;;13.00;86.20;;;;;;4927466;29;20225;-79
2023/03/09 02:32:18;;;;;;;17.90;13.63;;;13.00;86.20;;;;;;4920442;29;20208;-79
2023/03/09 02:34:45;;;;;;;18.07;12.57;;;13.00;86.20;;;;;;4930073;29;20215;-80
2023/03/09 02:37:33;;;;;;;17.57;12.90;;;13.00;86.40;;;;;;4928091;29;20293;-79
2023/03/09 02:40:15;;;;;;;17.00;12.97;;;13.00;86.60;;;;;;4908238;29;20594;-79
2023/03/09 02:42:46;;;;;;;17.20;13.60;;;13.00;86.60;;;;;;4926934;29;20221;-79
2023/03/09 02:45:19;;;;;;;19.30;12.93;;;13.00;86.60;;;;;;4924009;29;20262;-79
2023/03/09 02:47:47;;;;;;;22.63;13.77;;;13.00;86.60;;;;;;4908914;29;20554;-79
2023/03/09 02:50:16;;;;;;;20.00;13.37;;;13.00;86.60;;;;;;4922966;29;20293;-79
2023/03/09 02:52:43;;;;;;;16.60;12.73;;;13.00;86.30;;;;;;4930505;29;20237;-79
2023/03/09 02:55:12;;;;;;;16.83;13.43;;;13.00;86.20;;;;;;4918400;29;20336;-79
2023/03/09 02:57:43;;;;;;;21.03;14.70;;;13.00;86.20;;;;;;4938080;29;20212;-79
2023/03/09 03:00:15;;;;;;;19.13;14.27;;;12.90;86.20;;;;;;4936941;28;20247;-79
2023/03/09 03:02:43;;;;;;;18.50;13.07;;;12.90;86.30;;;;;;4929689;29;20211;-79
2023/03/09 03:05:10;;;;;;;19.17;13.83;;;12.80;86.50;;;;;;4932966;29;20271;-79
2023/03/09 03:07:40;;;;;;;21.20;13.23;;;12.80;86.60;;;;;;4925274;29;20715;-80
2023/03/09 03:10:09;;;;;;;21.10;13.87;;;12.80;86.70;;;;;;4933479;29;20207;-80
2023/03/09 03:12:37;;;;;;;16.73;13.20;;;12.70;86.70;;;;;;4930580;29;20211;-79
2023/03/09 03:15:06;;;;;;;22.07;13.93;;;12.70;86.80;;;;;;4921832;29;20199;-79
2023/03/09 03:17:34;;;;;;;18.63;12.40;;;12.60;86.90;;;;;;4925005;29;20212;-79
2023/03/09 03:20:11;;;;;;;18.70;13.93;;;12.60;86.90;;;;;;4918017;29;20285;-78
2023/03/09 03:22:43;;;;;;;19.93;13.77;;;12.50;87.00;;;;;;4918829;29;20203;-79
2023/03/09 03:25:12;;;;;;;16.40;13.97;;;12.50;87.20;;;;;;4939548;29;20246;-79
2023/03/09 03:27:45;;;;;;;21.33;13.17;;;12.50;87.50;;;;;;4936551;29;20313;-80
2023/03/09 03:30:13;;;;;;;19.63;13.30;;;12.50;87.60;;;;;;4927018;29;20221;-78
2023/03/09 03:32:43;;;;;;;15.03;12.03;;;12.50;87.70;;;;;;4916704;29;20237;-79
2023/03/09 03:35:12;;;;;;;17.57;13.17;;;12.40;87.70;;;;;;4930672;29;20580;-79
2023/03/09 03:37:42;;;;;;;18.67;13.07;;;12.30;87.90;;;;;;4930547;29;20555;-79
2023/03/09 03:40:11;;;;;;;15.57;11.93;;;12.30;88.20;;;;;;4933567;29;20245;-79
2023/03/09 03:42:40;;;;;;;18.30;12.93;;;12.20;88.40;;;;;;4935594;29;20209;-79
2023/03/09 03:45:10;;;;;;;15.73;11.87;;;12.20;88.60;;;;;;4923499;29;20622;-78
2023/03/09 03:47:37;;;;;;;15.03;11.30;;;12.10;88.60;;;;;;4932916;29;20206;-79
2023/03/09 03:50:07;;;;;;;16.30;11.77;;;12.10;88.50;;;;;;4929513;29;20207;-79
2023/03/09 03:52:41;;;;;;;21.27;12.03;;;12.10;88.60;;;;;;4929338;29;20203;-79
2023/03/09 03:55:09;;;;;;;14.70;11.37;;;12.00;88.60;;;;;;4939103;29;20210;-79
2023/03/09 03:57:36;;;;;;;15.87;11.47;;;12.00;88.70;;;;;;4917328;29;20258;-79
2023/03/09 04:00:10;;;;;;;15.43;11.77;;;12.00;88.70;;;;;;4919961;29;20305;-78
2023/03/09 04:02:38;;;;;;;16.73;11.77;;;12.00;88.80;;;;;;4928882;29;20203;-79
2023/03/09 04:05:13;;;;;;;17.20;11.20;;;12.00;88.90;;;;;;4919252;29;20249;-79
2023/03/09 04:07:43;;;;;;;14.47;11.17;;;12.10;88.90;;;;;;4931192;29;20210;-78
2023/03/09 04:10:11;;;;;;;17.40;10.67;;;12.10;88.80;;;;;;4934652;29;20213;-79
2023/03/09 04:12:42;;;;;;;18.77;12.27;;;12.10;88.90;;;;;;4929791;29;20205;-79
2023/03/09 04:15:11;;;;;;;17.90;10.47;;;12.10;88.90;;;;;;4933036;29;20275;-78
2023/03/09 04:17:38;;;;;;;15.37;11.67;;;12.10;89.00;;;;;;4921653;29;20269;-79
2023/03/09 04:20:07;;;;;;;15.93;12.20;;;12.10;89.00;;;;;;4935413;29;20676;-79
2023/03/09 04:22:34;;;;;;;15.60;12.27;;;12.20;89.00;;;;;;4937164;29;20199;-79
2023/03/09 04:25:02;;;;;;;15.40;11.63;;;12.10;89.10;;;;;;4918186;29;20231;-79
2023/03/09 04:27:29;;;;;;;13.47;10.87;;;12.20;89.20;;;;;;4916272;29;20286;-79
2023/03/09 04:30:05;;;;;;;17.33;11.87;;;12.20;89.20;;;;;;4921918;29;20667;-79
2023/03/09 04:32:34;;;;;;;14.53;11.07;;;12.20;89.10;;;;;;4922660;29;20554;-79
2023/03/09 04:35:07;;;;;;;15.57;11.73;;;12.20;89.10;;;;;;4933349;29;20222;-79
2023/03/09 04:37:36;;;;;;;19.27;12.03;;;12.20;89.20;;;;;;4936205;29;20215;-79
2023/03/09 04:40:05;;;;;;;14.47;11.23;;;12.20;89.30;;;;;;4938096;29;20271;-78
2023/03/09 04:42:33;;;;;;;19.27;11.57;;;12.20;89.30;;;;;;4933147;29;20226;-79
2023/03/09 04:45:00;;;;;;;13.87;12.37;;;12.20;89.30;;;;;;4930550;29;20200;-79
2023/03/09 04:47:28;;;;;;;15.70;11.33;;;12.20;89.40;;;;;;4935832;29;20229;-79
2023/03/09 04:49:55;;;;;;;17.43;12.33;;;12.10;89.40;;;;;;4922225;29;20214;-79
2023/03/09 04:52:23;;;;;;;12.03;10.63;;;12.10;89.40;;;;;;4922806;29;20222;-79
2023/03/09 04:54:54;;;;;;;13.93;12.30;;;12.10;89.30;;;;;;4938305;29;20211;-79
2023/03/09 04:57:22;;;;;;;16.67;12.20;;;12.00;89.30;;;;;;4926099;29;20592;-79
2023/03/09 04:59:49;;;;;;;18.93;12.10;;;12.00;89.60;;;;;;4944143;29;20219;-79
2023/03/09 05:02:17;;;;;;;15.23;12.30;;;11.90;89.70;;;;;;4931012;29;20203;-79
2023/03/09 05:04:46;;;;;;;21.20;13.10;;;11.90;89.80;;;;;;4932729;29;20233;-79
2023/03/09 05:07:14;;;;;;;14.07;12.10;;;11.80;89.90;;;;;;4933729;29;20224;-79
2023/03/09 05:09:42;;;;;;;21.20;12.60;;;11.70;89.90;;;;;;4934262;29;20672;-79
2023/03/09 05:12:11;;;;;;;17.63;12.47;;;11.70;90.00;;;;;;4919463;29;20231;-79
2023/03/09 05:14:40;;;;;;;19.57;13.47;;;11.60;90.20;;;;;;4912679;29;20229;-79
2023/03/09 05:17:08;;;;;;;17.40;11.40;;;11.60;90.40;;;;;;4919321;29;20215;-79
2023/03/09 05:19:37;;;;;;;27.20;12.73;;;11.60;90.40;;;;;;4934350;29;20222;-79
2023/03/09 05:22:05;;;;;;;18.63;11.33;;;11.50;90.30;;;;;;4917728;29;20230;-79
2023/03/09 05:24:32;;;;;;;17.40;11.50;;;11.50;90.40;;;;;;4920737;29;20330;-79
2023/03/09 05:27:00;;;;;;;19.73;12.63;;;11.50;90.40;;;;;;4918734;29;20649;-79
2023/03/09 05:29:30;;;;;;;18.43;11.87;;;11.40;90.30;;;;;;4919195;29;20302;-79
2023/03/09 05:31:57;;;;;;;13.97;11.47;;;11.30;90.30;;;;;;4926639;29;20294;-81
2023/03/09 05:34:26;;;;;;;18.43;12.83;;;11.30;90.40;;;;;;4936132;29;20218;-79
2023/03/09 05:36:55;;;;;;;15.00;10.87;;;11.30;90.50;;;;;;4937702;29;20549;-79
2023/03/09 05:39:25;;;;;;;21.57;11.13;;;11.30;90.40;;;;;;4936940;29;20600;-79
2023/03/09 05:41:52;;;;;;;15.70;11.87;;;11.20;90.40;;;;;;4930788;29;20375;-79
2023/03/09 05:44:34;;;;;;;18.37;11.73;;;11.20;90.40;;;;;;4931083;29;20200;-79
2023/03/09 05:47:02;;;;;;;19.83;11.90;;;11.10;90.40;;;;;;4924485;29;20712;-79
2023/03/09 05:49:30;;;;;;;14.90;11.73;;;11.10;90.40;;;;;;4920406;29;20220;-79
2023/03/09 05:51:59;;;;;;;14.93;10.87;;;11.10;90.60;;;;;;4924062;29;20617;-79
2023/03/09 05:54:27;;;;;;;16.97;12.10;;;11.10;90.60;;;;;;4933364;29;20552;-79
2023/03/09 05:56:57;;;;;;;21.77;12.17;;;11.00;90.40;;;;;;4930842;29;20294;-79
2023/03/09 05:59:25;;;;;;;19.57;12.50;;;11.00;90.50;;;;;;4917544;29;20665;-79
2023/03/09 06:01:52;;;;;;;18.10;11.53;;;11.00;90.60;;;;;;4934508;29;20306;-78
2023/03/09 06:04:23;;;;;;;17.93;10.80;;;11.00;90.60;;;;;;4926338;29;20210;-79
2023/03/09 06:06:56;;;;;;;16.93;11.40;;;11.10;90.60;;;;;;4916381;29;20271;-78
2023/03/09 06:09:29;;;;;;;17.47;11.47;;;11.20;90.50;;;;;;4934843;29;20207;-79
2023/03/09 06:11:58;;;;;;;18.53;10.83;;;11.20;90.50;;;;;;4930540;29;20365;-79
2023/03/09 06:14:25;;;;;;;21.93;11.70;;;11.20;90.50;;;;;;4927621;29;20557;-80
2023/03/09 06:16:52;;;;;;;18.20;12.77;;;11.30;90.50;;;;;;4930105;29;20527;-79
2023/03/09 06:19:20;;;;;;;19.73;12.67;;;11.30;90.50;;;;;;4914821;29;20217;-79
2023/03/09 06:21:52;;;;;;;20.30;12.10;;;11.40;90.40;;;;;;4911026;29;20225;-79
2023/03/09 06:24:20;;;;;;;14.50;11.23;;;11.50;90.40;;;;;;4931006;29;20277;-79
2023/03/09 06:26:48;;;;;;;15.07;10.83;;;11.50;90.20;;;;;;4932683;29;20238;-79
2023/03/09 06:29:26;;;;;;;20.17;11.27;;;11.60;90.20;;;;;;4932373;29;20302;-78
2023/03/09 06:31:54;;;;;;;16.90;10.37;;;11.70;90.20;;;;;;4931484;29;20234;-79
2023/03/09 06:34:22;;;;;;;16.07;11.23;;;11.80;90.10;;;;;;4931175;29;20654;-78
2023/03/09 06:36:50;;;;;;;15.47;10.30;;;11.90;90.00;;;;;;4916655;29;20230;-79
2023/03/09 06:39:17;;;;;;;17.30;11.10;;;12.10;89.70;;;;;;4924539;29;20426;-79
2023/03/09 06:41:44;;;;;;;18.40;11.50;;;12.20;89.10;;;;;;4918210;29;20220;-79
2023/03/09 06:44:20;;;;;;;15.40;10.87;;;12.30;88.70;;;;;;4923823;29;20222;-78
2023/03/09 06:46:48;;;;;;;14.80;11.03;;;12.40;88.50;;;;;;4931694;29;20555;-78
2023/03/09 06:49:18;;;;;;;17.40;11.30;;;12.50;88.20;;;;;;4929145;29;20237;-79
2023/03/09 06:51:46;;;;;;;18.27;11.40;;;12.60;88.10;;;;;;4925587;29;20207;-78
2023/03/09 06:54:14;;;;;;;34.77;12.60;;;12.70;87.70;;;;;;4926713;29;20207;-78
2023/03/09 06:56:51;;;;;;;15.70;11.20;;;12.70;87.40;;;;;;4930613;29;20254;-78
2023/03/09 06:59:19;;;;;;;16.70;11.43;;;12.70;87.30;;;;;;4912355;29;20286;-78
2023/03/09 07:01:47;;;;;;;18.33;11.57;;;12.70;87.40;;;;;;4931308;29;20621;-79
2023/03/09 07:04:14;;;;;;;20.07;12.13;;;12.70;87.50;;;;;;4931940;29;20205;-79
2023/03/09 07:06:41;;;;;;;20.57;12.47;;;12.70;87.60;;;;;;4919205;29;20206;-79
2023/03/09 07:09:08;;;;;;;16.40;12.37;;;12.80;87.70;;;;;;4930107;29;20627;-78
2023/03/09 07:11:35;;;;;;;27.70;12.97;;;12.80;87.80;;;;;;4923264;29;20210;-78
2023/03/09 07:14:03;;;;;;;19.33;12.90;;;12.90;87.90;;;;;;4919420;29;20210;-78
2023/03/09 07:16:30;;;;;;;20.77;12.80;;;13.00;88.00;;;;;;4932788;29;20284;-78
2023/03/09 07:18:57;;;;;;;23.73;14.30;;;13.10;88.20;;;;;;4918968;29;20200;-79
2023/03/09 07:21:25;;;;;;;20.07;14.97;;;13.20;88.20;;;;;;4930017;29;20230;-78
2023/03/09 07:23:52;;;;;;;24.17;16.17;;;13.40;88.10;;;;;;4935129;29;20239;-79
2023/03/09 07:26:20;;;;;;;23.70;17.53;;;13.40;87.90;;;;;;4921690;29;20209;-78
2023/03/09 07:28:47;;;;;;;26.57;18.20;;;13.50;87.70;;;;;;4930095;29;20199;-78
2023/03/09 07:31:15;;;;;;;24.17;19.20;;;13.60;87.70;;;;;;4925836;29;20274;-78
2023/03/09 07:33:42;;;;;;;28.20;19.87;;;13.70;87.50;;;;;;4919589;29;20217;-79
2023/03/09 07:36:09;;;;;;;26.30;20.20;;;13.80;87.40;;;;;;4917742;29;20211;-78
2023/03/09 07:38:38;;;;;;;34.60;21.77;;;13.90;87.30;;;;;;4924990;29;20275;-78
2023/03/09 07:41:06;;;;;;;34.73;21.90;;;14.00;87.20;;;;;;4918875;29;20309;-78
2023/03/09 07:43:33;;;;;;;32.10;22.93;;;14.20;86.80;;;;;;4920493;29;20207;-78
2023/03/09 07:46:06;;;;;;;32.97;22.70;;;14.40;86.60;;;;;;4933131;29;20258;-78
2023/03/09 07:48:33;;;;;;;30.90;21.80;;;14.60;86.00;;;;;;4910902;29;20203;-78
2023/03/09 07:51:00;;;;;;;31.70;21.90;;;14.80;85.50;;;;;;4923185;29;20206;-78
2023/03/09 07:53:29;;;;;;;31.23;21.47;;;15.00;84.90;;;;;;4937906;29;20624;-77
2023/03/09 07:55:58;;;;;;;29.57;20.93;;;15.10;84.20;;;;;;4931132;29;20264;-79
2023/03/09 07:58:25;;;;;;;28.73;19.90;;;15.40;83.70;;;;;;4930534;29;20230;-79
2023/03/09 08:00:52;;;;;;;24.83;20.20;;;15.50;82.90;;;;;;4928796;29;20547;-78
2023/03/09 08:03:20;;;;;;;27.13;19.27;;;15.70;82.10;;;;;;4924716;29;20638;-80
2023/03/09 08:05:47;;;;;;;25.37;19.27;;;15.90;81.80;;;;;;4918743;29;20195;-79
2023/03/09 08:08:15;;;;;;;26.07;19.50;;;16.00;81.00;;;;;;4923741;29;20215;-78
2023/03/09 08:10:49;;;;;;;28.87;18.90;;;16.20;80.10;;;;;;4917799;29;20201;-79
2023/03/09 08:13:17;;;;;;;25.27;18.70;;;16.40;79.70;;;;;;4912366;29;20219;-80
2023/03/09 08:15:45;;;;;;;27.47;18.10;;;16.50;79.20;;;;;;4934122;29;20209;-79
2023/03/09 08:18:12;;;;;;;22.07;17.80;;;16.70;78.70;;;;;;4916695;29;20208;-78
2023/03/09 08:20:39;;;;;;;22.00;18.53;;;16.80;78.00;;;;;;4927073;29;20222;-79
2023/03/09 08:23:07;;;;;;;30.93;21.87;;;17.00;77.40;;;;;;4917768;29;20214;-78
2023/03/09 08:25:34;;;;;;;37.53;25.27;;;17.10;76.80;;;;;;4925162;29;20267;-79
2023/03/09 08:28:01;;;;;;;25.47;18.67;;;17.30;76.60;;;;;;4927989;29;20214;-79
2023/03/09 08:30:29;;;;;;;26.23;19.70;;;17.40;76.30;;;;;;4920150;29;20217;-80
2023/03/09 08:32:57;;;;;;;27.43;18.53;;;17.60;76.00;;;;;;4916734;29;20650;-79
2023/03/09 08:35:30;;;;;;;21.37;16.10;;;17.70;75.70;;;;;;4928932;29;20211;-79
2023/03/09 08:37:57;;;;;;;20.90;14.17;;;17.90;75.50;;;;;;4929758;29;20248;-78
2023/03/09 08:40:24;;;;;;;19.40;14.77;;;18.00;75.40;;;;;;4920252;29;20222;-79
2023/03/09 08:42:51;;;;;;;18.33;13.40;;;18.20;75.10;;;;;;4927837;29;20210;-79
2023/03/09 08:45:18;;;;;;;15.53;12.70;;;18.40;74.80;;;;;;4923114;29;20200;-79
2023/03/09 08:47:46;;;;;;;21.77;16.30;;;18.50;73.90;;;;;;4935397;29;20201;-81
2023/03/09 08:50:13;;;;;;;23.03;16.17;;;18.70;73.40;;;;;;4927086;29;20212;-79
2023/03/09 08:52:41;;;;;;;16.03;12.93;;;18.80;73.10;;;;;;4930316;29;20214;-79
2023/03/09 08:55:11;;;;;;;21.40;14.40;;;18.90;72.30;;;;;;4918865;29;20223;-80
2023/03/09 08:57:38;;;;;;;21.17;13.47;;;18.90;72.00;;;;;;4934366;28;20611;-79
2023/03/09 09:00:09;;;;;;;19.53;13.70;;;18.90;71.30;;;;;;4936156;29;20227;-80
2023/03/09 09:02:37;;;;;;;17.37;13.23;;;19.00;70.80;;;;;;4922058;29;20222;-79
2023/03/09 09:05:06;;;;;;;16.90;12.80;;;19.00;70.30;;;;;;4922961;29;20218;-80
2023/03/09 09:07:34;;;;;;;15.30;13.73;;;19.00;70.20;;;;;;4916064;29;20199;-80
2023/03/09 09:10:02;;;;;;;16.97;12.93;;;19.10;70.80;;;;;;4915882;29;20243;-80
2023/03/09 09:12:32;;;;;;;17.80;13.30;;;19.10;71.10;;;;;;4932107;29;20555;-79
2023/03/09 09:14:59;;;;;;;18.57;12.73;;;19.10;70.70;;;;;;4918339;29;20222;-81
2023/03/09 09:17:26;;;;;;;17.87;12.43;;;19.10;70.00;;;;;;4930858;29;20210;-79
2023/03/09 09:19:53;;;;;;;15.67;12.00;;;19.10;69.60;;;;;;4934812;29;20783;-80
2023/03/09 09:22:20;;;;;;;14.93;13.17;;;19.10;69.30;;;;;;4915369;29;20241;-80
2023/03/09 09:24:49;;;;;;;15.70;10.87;;;19.10;68.80;;;;;;4922579;29;20259;-81
2023/03/09 09:27:16;;;;;;;13.83;10.87;;;19.00;68.80;;;;;;4933653;29;20555;-83
2023/03/09 09:29:43;;;;;;;18.67;11.73;;;19.00;68.50;;;;;;4929970;29;20213;-84
2023/03/09 09:32:10;;;;;;;14.23;11.77;;;18.90;67.60;;;;;;4927749;29;20206;-79
2023/03/09 09:34:37;;;;;;;15.20;10.70;;;18.80;68.30;;;;;;4934107;29;20235;-79
2023/03/09 09:37:05;;;;;;;17.43;11.50;;;18.80;69.00;;;;;;4921201;29;20218;-79
2023/03/09 09:39:33;;;;;;;15.93;10.77;;;18.80;69.10;;;;;;4937071;29;20255;-80
2023/03/09 09:42:03;;;;;;;16.63;12.10;;;18.90;66.90;;;;;;4920918;29;20230;-78
2023/03/09 09:44:40;;;;;;;14.93;10.83;;;18.90;68.40;;;;;;4920223;29;20543;-80
2023/03/09 09:47:15;;;;;;;15.57;10.30;;;18.90;69.00;;;;;;4927278;29;20640;-80
2023/03/09 09:49:54;;;;;;;13.23;10.07;;;18.90;69.00;;;;;;4925143;29;20207;-78
2023/03/09 09:52:30;;;;;;;16.43;11.23;;;18.90;68.70;;;;;;4929464;29;20219;-78
2023/03/09 09:55:23;;;;;;;11.77;9.17;;;18.90;68.90;;;;;;4920192;29;20206;-78
2023/03/09 09:58:03;;;;;;;14.60;10.47;;;19.10;68.80;;;;;;4905646;29;20207;-79
2023/03/09 10:00:33;;;;;;;17.70;9.93;;;19.20;68.10;;;;;;4924545;29;20226;-81
2023/03/09 10:03:25;;;;;;;15.13;10.50;;;19.40;67.20;;;;;;4917634;29;20235;-81
2023/03/09 10:06:13;;;;;;;18.80;9.10;;;19.50;66.60;;;;;;4928110;29;20652;-83
2023/03/09 10:09:06;;;;;;;15.47;9.90;;;19.60;63.60;;;;;;4933555;29;20634;-81
2023/03/09 10:11:45;;;;;;;12.37;9.90;;;19.50;63.30;;;;;;4926237;29;20681;-78
2023/03/09 10:14:31;;;;;;;13.50;9.40;;;19.30;64.30;;;;;;4930953;29;20528;-79
2023/03/09 10:17:16;;;;;;;15.93;8.87;;;19.30;66.10;;;;;;4935689;29;20218;-80
2023/03/09 10:19:48;;;;;;;11.57;8.50;;;19.30;64.50;;;;;;4923344;29;20788;-79
2023/03/09 10:22:23;;;;;;;16.10;8.60;;;19.30;63.40;;;;;;4929213;29;20230;-82
2023/03/09 10:24:52;;;;;;;14.97;10.23;;;19.30;64.40;;;;;;4924665;29;20239;-78
2023/03/09 10:27:25;;;;;;;13.73;8.47;;;19.40;64.30;;;;;;4934763;29;20677;-79
2023/03/09 10:30:42;;;;;;;16.80;10.00;;;19.50;62.30;;;;;;4935142;29;20210;-79
2023/03/09 10:33:17;;;;;;;14.17;8.80;;;19.50;63.60;;;;;;4905779;29;20211;-79
2023/03/09 10:35:56;;;;;;;17.23;9.60;;;19.50;63.10;;;;;;4929488;29;20234;-78
2023/03/09 10:38:23;;;;;;;15.07;8.77;;;19.60;63.90;;;;;;4937883;29;20363;-79
2023/03/09 10:40:53;;;;;;;12.83;8.93;;;19.70;64.30;;;;;;4920014;29;20254;-81
2023/03/09 10:43:32;;;;;;;18.43;10.50;;;19.80;63.90;;;;;;4929222;29;20215;-80
2023/03/09 10:46:21;;;;;;;10.70;7.97;;;19.90;64.20;;;;;;4921846;29;20540;-81
2023/03/09 10:48:51;;;;;;;13.87;9.13;;;20.00;61.90;;;;;;4927167;29;20215;-81
2023/03/09 10:51:33;;;;;;;13.97;10.10;;;20.00;62.50;;;;;;4928779;29;20234;-78
2023/03/09 10:54:35;;;;;;;17.77;9.53;;;20.00;64.30;;;;;;4931059;29;20690;-78
2023/03/09 10:57:24;;;;;;;15.07;9.53;;;20.20;64.60;;;;;;4926995;29;20261;-78
2023/03/09 10:59:57;;;;;;;14.63;9.03;;;20.50;64.40;;;;;;4923235;29;20240;-79
2023/03/09 11:02:35;;;;;;;11.17;8.60;;;20.70;64.30;;;;;;4917297;29;20225;-79
2023/03/09 11:05:33;;;;;;;15.67;9.13;;;20.90;63.70;;;;;;4931659;29;20293;-79
2023/03/09 11:08:07;;;;;;;16.47;9.87;;;21.00;63.30;;;;;;4929813;29;20211;-78
2023/03/09 11:10:35;;;;;;;12.43;8.53;;;21.20;62.50;;;;;;4920440;29;20203;-79
2023/03/09 11:13:04;;;;;;;16.53;10.00;;;21.30;61.80;;;;;;4934356;29;20206;-80
2023/03/09 11:15:37;;;;;;;13.93;9.40;;;21.40;61.70;;;;;;4933652;29;20207;-81
2023/03/09 11:18:28;;;;;;;16.70;9.80;;;21.30;61.10;;;;;;4923148;29;20229;-78
2023/03/09 11:20:56;;;;;;;19.03;9.50;;;21.30;61.00;;;;;;4932815;29;20258;-79
2023/03/09 11:23:37;;;;;;;16.83;9.50;;;21.30;61.40;;;;;;4921269;29;20522;-78
2023/03/09 11:26:23;;;;;;;16.97;9.63;;;21.40;61.70;;;;;;4923165;29;20608;-79
2023/03/09 11:29:11;;;;;;;20.47;9.83;;;21.60;61.90;;;;;;4936700;29;20321;-80
2023/03/09 11:31:41;;;;;;;17.13;10.23;;;21.70;62.00;;;;;;4932988;29;20209;-79
2023/03/09 11:34:23;;;;;;;13.27;9.87;;;21.90;61.40;;;;;;4928938;29;20707;-79
2023/03/09 11:37:16;;;;;;;13.73;9.20;;;22.00;61.40;;;;;;4931413;29;20206;-80
2023/03/09 11:39:56;;;;;;;13.00;9.70;;;22.10;60.80;;;;;;4918900;29;20360;-79
2023/03/09 11:42:43;;;;;;;16.83;9.90;;;22.20;60.40;;;;;;4939726;29;20699;-78
2023/03/09 11:45:18;;;;;;;14.93;11.10;;;22.30;58.00;;;;;;4937241;29;20231;-78
2023/03/09 11:48:16;;;;;;;15.40;9.93;;;22.10;59.10;;;;;;4935894;29;20269;-81
2023/03/09 11:51:02;;;;;;;16.43;10.03;;;22.10;59.50;;;;;;4930546;29;20296;-78
2023/03/09 11:53:53;;;;;;;18.53;11.30;;;22.00;60.40;;;;;;4935254;29;20293;-77
2023/03/09 11:56:32;;;;;;;13.70;8.03;;;21.90;60.00;;;;;;4928898;29;20206;-80
2023/03/09 11:59:14;;;;;;;16.47;10.30;;;21.80;60.40;;;;;;4939306;29;20198;-79
2023/03/09 12:01:47;;;;;;;19.03;11.00;;;21.90;60.00;;;;;;4933016;29;20617;-80
2023/03/09 12:04:16;;;;;;;20.43;10.90;;;22.00;60.00;;;;;;4932559;29;20211;-79
2023/03/09 12:06:55;;;;;;;15.00;9.90;;;22.00;60.30;;;;;;4918748;29;20213;-79
2023/03/09 12:09:51;;;;;;;16.90;10.03;;;22.10;61.40;;;;;;4935780;29;20628;-81
2023/03/09 12:12:28;;;;;;;14.77;9.37;;;22.20;60.40;;;;;;4939195;29;20524;-79
2023/03/09 12:15:01;;;;;;;10.83;7.60;;;22.30;59.30;;;;;;4924436;29;20207;-79
2023/03/09 12:17:35;;;;;;;15.23;9.43;;;22.40;59.10;;;;;;4944980;29;20206;-80
2023/03/09 12:20:03;;;;;;;15.40;9.20;;;22.40;59.10;;;;;;4920924;29;20233;-80
2023/03/09 12:22:38;;;;;;;16.07;9.60;;;22.50;59.20;;;;;;4929584;29;20238;-81
2023/03/09 12:25:18;;;;;;;12.37;8.83;;;22.50;56.80;;;;;;4909573;29;20249;-80
2023/03/09 12:28:05;;;;;;;15.87;9.30;;;22.50;57.60;;;;;;4938871;29;20206;-79
2023/03/09 12:30:43;;;;;;;15.10;10.40;;;22.50;57.90;;;;;;4922085;29;20302;-80
2023/03/09 12:33:11;;;;;;;15.50;9.30;;;22.50;58.30;;;;;;4930874;29;20203;-79
2023/03/09 12:35:38;;;;;;;15.13;9.70;;;22.60;57.90;;;;;;4941306;29;20210;-78
2023/03/09 12:38:17;;;;;;;16.27;9.47;;;22.60;57.40;;;;;;4928450;29;20211;-79
2023/03/09 12:40:44;;;;;;;15.47;8.97;;;22.50;57.20;;;;;;4941345;29;20581;-78
2023/03/09 12:43:14;;;;;;;17.50;9.27;;;22.40;56.30;;;;;;4922807;29;20210;-80
2023/03/09 12:45:43;;;;;;;14.20;9.23;;;22.30;57.10;;;;;;4945932;29;20723;-79
2023/03/09 12:48:13;;;;;;;13.57;9.47;;;22.30;58.20;;;;;;4937932;29;20213;-78
2023/03/09 12:50:45;;;;;;;17.17;9.17;;;22.30;58.50;;;;;;4931269;29;20235;-78